Terminal Aerodrome Forecast
Issued by NWS Shreveport, LA

Home | Current Version | Previous Version | Text Only | Print | Product List | Glossary On
Versions: 1 2 3 4 5 6 7 8 9 10 11 12 13 14 15 16
327
FTUS44 KSHV 211239 AAA
TAFMLU
TAF AMD
KMLU 211239Z 2113/2212 VRB03KT P6SM SKC
      TEMPO 2113/2116 4SM BR
     FM211700 16005KT P6SM SCT045 SCT250
     FM220100 13003KT P6SM FEW250=

USA.gov is the U.S. government's official web portal to all federal, state and local government web resources and services.